createdAt,value
2023-04-13T00:01:08.163Z,999.85
2023-04-13T00:02:01.875Z,999.85
2023-04-13T00:03:00.901Z,999.82
2023-04-13T00:04:01.566Z,999.85
2023-04-13T00:05:01.148Z,999.86
2023-04-13T00:06:11.460Z,999.78
2023-04-13T00:07:01.468Z,999.76
2023-04-13T00:08:01.467Z,999.79
2023-04-13T00:09:01.148Z,999.83
2023-04-13T00:10:01.095Z,999.88
2023-04-13T00:11:15.660Z,999.83
2023-04-13T00:12:01.309Z,999.83
2023-04-13T00:13:00.997Z,999.79
2023-04-13T00:14:01.206Z,999.86
2023-04-13T00:15:01.132Z,999.88
2023-04-13T00:16:01.151Z,999.92
2023-04-13T00:17:07.967Z,999.93
2023-04-13T00:18:01.418Z,999.92
2023-04-13T00:19:01.069Z,999.94
2023-04-13T00:20:01.050Z,999.94
2023-04-13T00:21:01.058Z,999.94
2023-04-13T00:22:07.235Z,1000
2023-04-13T00:23:00.659Z,1000
2023-04-13T00:24:00.517Z,1000.02
2023-04-13T00:25:00.263Z,1000.02
2023-04-13T00:25:59.857Z,1000.05
2023-04-13T00:27:01.509Z,1000.05
2023-04-13T00:28:01.097Z,1000
2023-04-13T00:29:01.024Z,1000.05
2023-04-13T00:30:01.183Z,1000.03
2023-04-13T00:31:01.554Z,1000.09
2023-04-13T00:32:01.140Z,1000.07
2023-04-13T00:33:00.749Z,1000.11
2023-04-13T00:34:00.379Z,1000.11
2023-04-13T00:35:00.320Z,1000.06
2023-04-13T00:35:59.937Z,1000.03
2023-04-13T00:36:59.789Z,1000.04
2023-04-13T00:38:01.493Z,1000.09
2023-04-13T00:39:01.112Z,1000.05
2023-04-13T00:40:01.470Z,1000.12
2023-04-13T00:41:01.093Z,1000.13
2023-04-13T00:42:01.096Z,1000.19
2023-04-13T00:43:00.732Z,1000.15
2023-04-13T00:44:00.502Z,1000.16
2023-04-13T00:45:00.128Z,1000.15
2023-04-13T00:45:59.743Z,1000.18
2023-04-13T00:47:01.757Z,1000.17
2023-04-13T00:48:01.435Z,1000.15
2023-04-13T00:49:01.302Z,1000.18
2023-04-13T00:50:01.037Z,1000.22
2023-04-13T00:51:01.031Z,1000.2
2023-04-13T00:52:01.059Z,1000.21
2023-04-13T00:53:00.632Z,1000.22
2023-04-13T00:54:00.378Z,1000.21
2023-04-13T00:55:00.044Z,1000.21
2023-04-13T00:55:59.713Z,1000.21
2023-04-13T00:57:02.307Z,1000.22
2023-04-13T00:58:01.554Z,1000.23
2023-04-13T00:59:01.225Z,1000.16
2023-04-13T01:00:02.091Z,1000.2
2023-04-13T01:01:01.130Z,1000.19
2023-04-13T01:02:01.241Z,1000.2
2023-04-13T01:03:00.999Z,1000.28
2023-04-13T01:04:01.187Z,1000.24
2023-04-13T01:05:01.009Z,1000.26
2023-04-13T01:06:01.399Z,1000.27
2023-04-13T01:07:03.999Z,1000.2
2023-04-13T01:08:01.065Z,1000.28
2023-04-13T01:09:01.064Z,1000.21
2023-04-13T01:10:01.099Z,1000.25
2023-04-13T01:11:01.122Z,1000.28
2023-04-13T01:12:01.582Z,1000.3
2023-04-13T01:13:00.769Z,1000.34
2023-04-13T01:14:01.649Z,1000.38
2023-04-13T01:15:01.509Z,1000.42
2023-04-13T01:16:01.298Z,1000.41
2023-04-13T01:17:01.112Z,1000.44
2023-04-13T01:18:00.869Z,1000.4
2023-04-13T01:19:01.207Z,1000.39
2023-04-13T01:20:01.160Z,1000.41
2023-04-13T01:21:01.104Z,1000.34
2023-04-13T01:22:01.164Z,1000.39
2023-04-13T01:23:00.738Z,1000.35
2023-04-13T01:24:00.676Z,1000.37
2023-04-13T01:25:00.438Z,1000.45
2023-04-13T01:26:00.052Z,1000.43
2023-04-13T01:27:00.207Z,1000.47
2023-04-13T01:27:59.842Z,1000.54
2023-04-13T01:29:02.072Z,1000.55
2023-04-13T01:30:01.200Z,1000.59
2023-04-13T01:31:01.104Z,1000.64
2023-04-13T01:32:02.809Z,1000.66
2023-04-13T01:33:00.696Z,1000.74
2023-04-13T01:34:00.670Z,1000.77
2023-04-13T01:35:00.435Z,1000.8
2023-04-13T01:36:00.014Z,1000.83
2023-04-13T01:37:05.213Z,1000.84
2023-04-13T01:38:01.667Z,1000.85
2023-04-13T01:39:00.908Z,1000.85
2023-04-13T01:40:00.531Z,1000.84
2023-04-13T01:41:00.235Z,1000.83
2023-04-13T01:42:07.847Z,1000.78
2023-04-13T01:43:00.867Z,1000.83
2023-04-13T01:44:01.594Z,1000.82
2023-04-13T01:45:01.103Z,1000.87
2023-04-13T01:46:01.153Z,1000.84
2023-04-13T01:47:10.407Z,1000.81
2023-04-13T01:48:00.844Z,1000.84
2023-04-13T01:49:01.113Z,1000.79
2023-04-13T01:50:01.475Z,1000.77
2023-04-13T01:51:01.510Z,1000.71
2023-04-13T01:52:12.661Z,1000.74
2023-04-13T01:53:01.124Z,1000.69
2023-04-13T01:54:01.351Z,1000.71
2023-04-13T01:55:01.050Z,1000.7
2023-04-13T01:56:01.129Z,1000.75
2023-04-13T01:57:15.017Z,1000.71
2023-04-13T01:58:01.278Z,1000.69
2023-04-13T01:59:01.414Z,1000.69
2023-04-13T02:00:01.083Z,1000.71
2023-04-13T02:01:01.235Z,1000.73
2023-04-13T02:02:01.104Z,1000.71
2023-04-13T02:03:00.781Z,1000.71
2023-04-13T02:04:01.329Z,1000.73
2023-04-13T02:05:01.128Z,1000.74
2023-04-13T02:06:01.446Z,1000.74
2023-04-13T02:07:01.043Z,1000.76
2023-04-13T02:08:00.593Z,1000.77
2023-04-13T02:09:00.208Z,1000.76
2023-04-13T02:09:59.800Z,1000.78
2023-04-13T02:11:01.727Z,1000.75
2023-04-13T02:12:01.061Z,1000.78
2023-04-13T02:13:01.012Z,1000.73
2023-04-13T02:14:01.556Z,1000.71
2023-04-13T02:15:01.100Z,1000.74
2023-04-13T02:16:01.108Z,1000.73
2023-04-13T02:17:01.086Z,1000.72
2023-04-13T02:18:00.657Z,1000.69
2023-04-13T02:19:00.357Z,1000.69
2023-04-13T02:19:59.965Z,1000.65
2023-04-13T02:20:59.676Z,1000.73
2023-04-13T02:22:01.344Z,1000.71
2023-04-13T02:23:01.013Z,1000.67
2023-04-13T02:24:01.452Z,1000.7
2023-04-13T02:25:01.037Z,1000.67
2023-04-13T02:26:01.033Z,1000.65
2023-04-13T02:27:01.053Z,1000.64
2023-04-13T02:28:00.652Z,1000.64
2023-04-13T02:29:01.709Z,1000.65
2023-04-13T02:30:01.497Z,1000.65
2023-04-13T02:31:01.377Z,1000.66
2023-04-13T02:32:01.473Z,1000.67
2023-04-13T02:33:00.968Z,1000.71
2023-04-13T02:34:01.297Z,1000.71
2023-04-13T02:35:01.097Z,1000.73
2023-04-13T02:36:01.143Z,1000.76
2023-04-13T02:37:01.130Z,1000.76
2023-04-13T02:38:01.018Z,1000.85
2023-04-13T02:39:01.127Z,1000.92
2023-04-13T02:40:01.137Z,1000.89
2023-04-13T02:41:01.054Z,1000.89
2023-04-13T02:42:01.040Z,1000.94
2023-04-13T02:43:00.856Z,1000.96
2023-04-13T02:44:00.548Z,1000.93
2023-04-13T02:45:01.021Z,1000.93
2023-04-13T02:46:01.069Z,1000.99
2023-04-13T02:47:01.069Z,1000.98
2023-04-13T02:48:00.629Z,1001
2023-04-13T02:49:00.256Z,1001.05
2023-04-13T02:49:59.780Z,1001.09
2023-04-13T02:51:01.646Z,1001.13
2023-04-13T02:52:01.116Z,1001.1
2023-04-13T02:53:00.798Z,1001.12
2023-04-13T02:54:00.760Z,1001.18
2023-04-13T02:55:01.032Z,1001.21
2023-04-13T02:56:01.156Z,1001.23
2023-04-13T02:57:01.788Z,1001.24
2023-04-13T02:58:00.706Z,1001.31
2023-04-13T02:59:01.045Z,1001.33
2023-04-13T03:00:01.042Z,1001.33
2023-04-13T03:01:01.075Z,1001.33
2023-04-13T03:02:01.169Z,1001.35
2023-04-13T03:03:00.853Z,1001.38
2023-04-13T03:04:01.335Z,1001.38
2023-04-13T03:05:01.134Z,1001.4
2023-04-13T03:06:01.082Z,1001.37
2023-04-13T03:07:01.103Z,1001.41
2023-04-13T03:08:00.850Z,1001.45
2023-04-13T03:09:01.396Z,1001.47
2023-04-13T03:10:01.030Z,1001.49
2023-04-13T03:11:01.126Z,1001.53
2023-04-13T03:12:01.135Z,1001.58
2023-04-13T03:13:00.703Z,1001.57
2023-04-13T03:14:00.396Z,1001.56
2023-04-13T03:15:00.169Z,1001.59
2023-04-13T03:16:00.030Z,1001.61
2023-04-13T03:16:59.761Z,1001.51
2023-04-13T03:18:02.099Z,1001.51
2023-04-13T03:19:00.511Z,1001.5
2023-04-13T03:20:00.179Z,1001.43
2023-04-13T03:20:59.846Z,1001.43
2023-04-13T03:22:02.306Z,1001.46
2023-04-13T03:23:04.901Z,1001.5
2023-04-13T03:24:02.006Z,1001.46
2023-04-13T03:25:01.254Z,1001.5
2023-04-13T03:26:01.473Z,1001.48
2023-04-13T03:27:01.475Z,1001.52
2023-04-13T03:28:06.790Z,1001.52
2023-04-13T03:29:01.050Z,1001.55
2023-04-13T03:30:01.035Z,1001.61
2023-04-13T03:31:01.091Z,1001.63
2023-04-13T03:32:01.046Z,1001.62
2023-04-13T03:33:08.636Z,1001.58
2023-04-13T03:34:01.656Z,1001.58
2023-04-13T03:35:01.286Z,1001.6
2023-04-13T03:36:01.282Z,1001.73
2023-04-13T03:37:01.487Z,1001.72
2023-04-13T03:38:11.762Z,1001.81
2023-04-13T03:39:01.588Z,1001.82
2023-04-13T03:40:02.557Z,1001.86
2023-04-13T03:41:01.310Z,1001.86
2023-04-13T03:42:01.658Z,1001.87
2023-04-13T03:43:13.667Z,1001.9
2023-04-13T03:44:01.674Z,1001.9
2023-04-13T03:45:01.536Z,1001.9
2023-04-13T03:46:01.598Z,1001.9
2023-04-13T03:47:01.885Z,1001.84
2023-04-13T03:48:01.225Z,1001.86
2023-04-13T03:49:00.888Z,1001.86
2023-04-13T03:50:01.066Z,1001.85
2023-04-13T03:51:01.589Z,1001.9
2023-04-13T03:52:01.184Z,1001.91
2023-04-13T03:53:00.771Z,1001.94
2023-04-13T03:54:00.770Z,1001.93
2023-04-13T03:55:01.131Z,1001.94
2023-04-13T03:56:01.128Z,1001.96
2023-04-13T03:57:01.112Z,1001.89
2023-04-13T03:58:00.687Z,1001.88
2023-04-13T03:59:00.400Z,1001.85
2023-04-13T04:00:00.012Z,1001.91
2023-04-13T04:00:59.749Z,1001.9
2023-04-13T04:02:01.866Z,1001.93
2023-04-13T04:03:01.364Z,1001.92
2023-04-13T04:04:01.327Z,1001.98
2023-04-13T04:05:01.199Z,1002.01
2023-04-13T04:06:01.854Z,1002.04
2023-04-13T04:07:01.798Z,1002.08
2023-04-13T04:08:01.468Z,1002.06
2023-04-13T04:09:02.130Z,1002.05
2023-04-13T04:10:01.042Z,1002.03
2023-04-13T04:11:01.122Z,1002.03
2023-04-13T04:12:01.100Z,1002.06
2023-04-13T04:13:00.691Z,1002.07
2023-04-13T04:14:00.719Z,1002.03
2023-04-13T04:15:01.147Z,1002.04
2023-04-13T04:16:01.144Z,1002.15
2023-04-13T04:17:01.160Z,1002.14
2023-04-13T04:18:00.830Z,1002.14
2023-04-13T04:19:00.376Z,1002.2
2023-04-13T04:20:00.037Z,1002.19
2023-04-13T04:20:59.716Z,1002.18
2023-04-13T04:22:01.353Z,1002.15
2023-04-13T04:23:01.023Z,1002.14
2023-04-13T04:24:01.327Z,1002.14
2023-04-13T04:25:01.090Z,1002.18
2023-04-13T04:26:01.523Z,1002.15
2023-04-13T04:27:01.291Z,1002.16
2023-04-13T04:28:00.989Z,1002.2
2023-04-13T04:29:01.114Z,1002.24
2023-04-13T04:30:01.121Z,1002.27
2023-04-13T04:31:01.196Z,1002.28
2023-04-13T04:32:01.193Z,1002.22
2023-04-13T04:33:00.604Z,1002.17
2023-04-13T04:34:00.396Z,1002.14
2023-04-13T04:35:00.230Z,1002.09
2023-04-13T04:35:59.803Z,1002.16
2023-04-13T04:37:03.361Z,1002.15
2023-04-13T04:38:01.373Z,1002.12
2023-04-13T04:39:01.850Z,1002.16
2023-04-13T04:40:01.034Z,1002.15
2023-04-13T04:41:01.085Z,1002.14
2023-04-13T04:42:01.108Z,1002.1
2023-04-13T04:43:00.775Z,1002.15
2023-04-13T04:44:00.833Z,1002.24
2023-04-13T04:45:01.507Z,1002.29
2023-04-13T04:46:01.616Z,1002.3
2023-04-13T04:47:02.516Z,1002.3
2023-04-13T04:48:01.311Z,1002.22
2023-04-13T04:49:01.959Z,1002.22
2023-04-13T04:50:01.173Z,1002.24
2023-04-13T04:51:01.050Z,1002.23
2023-04-13T04:52:01.050Z,1002.2
2023-04-13T04:53:00.634Z,1002.26
2023-04-13T04:54:02.321Z,1002.23
2023-04-13T04:55:01.215Z,1002.21
2023-04-13T04:56:01.890Z,1002.21
2023-04-13T04:57:01.076Z,1002.21
2023-04-13T04:58:01.118Z,1002.23
2023-04-13T04:59:05.181Z,1002.18
2023-04-13T05:00:00.802Z,1002.1
2023-04-13T05:01:01.417Z,1002.1
2023-04-13T05:02:02.589Z,1002.06
2023-04-13T05:03:00.641Z,1002.04
2023-04-13T05:04:07.842Z,1002.03
2023-04-13T05:05:02.094Z,1001.99
2023-04-13T05:06:02.715Z,1002
2023-04-13T05:07:01.034Z,1001.98
2023-04-13T05:08:00.736Z,1002.04
2023-04-13T05:09:10.379Z,1002.04
2023-04-13T05:10:02.771Z,1002.14
2023-04-13T05:11:02.780Z,1002.15
2023-04-13T05:12:01.803Z,1002.15
2023-04-13T05:13:01.488Z,1002.1
2023-04-13T05:14:16.076Z,1002.08
2023-04-13T05:15:01.120Z,1002.13
2023-04-13T05:16:01.564Z,1002.16
2023-04-13T05:17:01.049Z,1002.27
2023-04-13T05:18:01.796Z,1002.33
2023-04-13T05:19:01.307Z,1002.41
2023-04-13T05:20:01.367Z,1002.38
2023-04-13T05:21:02.143Z,1002.4
2023-04-13T05:22:02.094Z,1002.37
2023-04-13T05:23:00.819Z,1002.37
2023-04-13T05:24:00.444Z,1002.44
2023-04-13T05:25:01.100Z,1002.47
2023-04-13T05:26:01.068Z,1002.52
2023-04-13T05:27:01.075Z,1002.5
2023-04-13T05:28:00.666Z,1002.48
2023-04-13T05:29:00.554Z,1002.49
2023-04-13T05:30:00.359Z,1002.5
2023-04-13T05:31:00.110Z,1002.49
2023-04-13T05:32:00.074Z,1002.53
2023-04-13T05:32:59.928Z,1002.58
2023-04-13T05:33:59.840Z,1002.61
2023-04-13T05:35:02.552Z,1002.62
2023-04-13T05:36:01.544Z,1002.64
2023-04-13T05:37:01.674Z,1002.68
2023-04-13T05:38:01.336Z,1002.7
2023-04-13T05:39:01.272Z,1002.69
2023-04-13T05:40:01.150Z,1002.76
2023-04-13T05:41:01.531Z,1002.77
2023-04-13T05:42:02.132Z,1002.71
2023-04-13T05:43:01.162Z,1002.73
2023-04-13T05:44:01.090Z,1002.76
2023-04-13T05:45:01.115Z,1002.76
2023-04-13T05:46:01.198Z,1002.81
2023-04-13T05:47:01.106Z,1002.78
2023-04-13T05:48:00.713Z,1002.82
2023-04-13T05:49:00.723Z,1002.85
2023-04-13T05:50:01.033Z,1002.88
2023-04-13T05:51:01.146Z,1002.84
2023-04-13T05:52:01.274Z,1002.94
2023-04-13T05:53:02.616Z,1002.99
2023-04-13T05:54:01.047Z,1003.01
2023-04-13T05:55:00.632Z,1003.08
2023-04-13T05:56:00.522Z,1003.1
2023-04-13T05:57:00.512Z,1003.12
2023-04-13T05:58:00.245Z,1003.15
2023-04-13T05:59:00.266Z,1003.13
2023-04-13T06:00:00.192Z,1003.18
2023-04-13T06:01:00.043Z,1003.22
2023-04-13T06:01:59.852Z,1003.21
2023-04-13T06:02:59.791Z,1003.3
2023-04-13T06:04:01.675Z,1003.56
2023-04-13T06:05:01.457Z,1003.33
2023-04-13T06:06:02.202Z,1003.41
2023-04-13T06:07:00.830Z,1003.45
2023-04-13T06:08:00.510Z,1003.49
2023-04-13T06:09:00.403Z,1003.48
2023-04-13T06:10:00.339Z,1003.47
2023-04-13T06:11:00.004Z,1003.44
2023-04-13T06:12:00.003Z,1003.44
2023-04-13T06:12:59.718Z,1003.43
2023-04-13T06:14:01.557Z,1003.42
2023-04-13T06:15:01.836Z,1003.41
2023-04-13T06:16:01.113Z,1003.38
2023-04-13T06:17:01.127Z,1003.4
2023-04-13T06:18:00.982Z,1003.41
2023-04-13T06:19:01.045Z,1003.42
2023-04-13T06:20:00.878Z,1003.45
2023-04-13T06:21:01.113Z,1003.41
2023-04-13T06:22:01.108Z,1003.42
2023-04-13T06:23:00.791Z,1003.43
2023-04-13T06:24:00.412Z,1003.46
2023-04-13T06:24:59.950Z,1003.52
2023-04-13T06:25:59.597Z,1003.54
2023-04-13T06:27:01.726Z,1003.57
2023-04-13T06:28:01.239Z,1003.56
2023-04-13T06:29:02.375Z,1003.58
2023-04-13T06:30:01.961Z,1003.58
2023-04-13T06:31:01.124Z,1003.58
2023-04-13T06:32:01.428Z,1003.61
2023-04-13T06:33:00.876Z,1003.6
2023-04-13T06:34:01.054Z,1003.62
2023-04-13T06:35:03.838Z,1003.68
2023-04-13T06:36:01.112Z,1003.67
2023-04-13T06:37:01.498Z,1003.68
2023-04-13T06:38:00.692Z,1003.7
2023-04-13T06:39:00.551Z,1003.67
2023-04-13T06:40:06.801Z,1003.77
2023-04-13T06:41:04.755Z,1003.82
2023-04-13T06:42:02.674Z,1003.85
2023-04-13T06:43:01.457Z,1003.9
2023-04-13T06:44:01.049Z,1003.93
2023-04-13T06:45:09.674Z,1003.93
2023-04-13T06:46:01.529Z,1003.9
2023-04-13T06:47:01.176Z,1003.92
2023-04-13T06:48:00.886Z,1003.9
2023-04-13T06:49:01.280Z,1003.91
2023-04-13T06:50:13.408Z,1003.87
2023-04-13T06:51:01.085Z,1003.79
2023-04-13T06:52:01.240Z,1003.77
2023-04-13T06:53:00.899Z,1003.79
2023-04-13T06:54:01.115Z,1003.8
2023-04-13T06:55:15.523Z,1003.81
2023-04-13T06:56:01.145Z,1003.88
2023-04-13T06:57:01.526Z,1003.85
2023-04-13T06:58:00.597Z,1003.87
2023-04-13T06:59:02.356Z,1003.87
2023-04-13T07:00:01.214Z,1003.89
2023-04-13T07:01:00.744Z,1003.96
2023-04-13T07:02:00.543Z,1003.94
2023-04-13T07:03:00.766Z,1003.95
2023-04-13T07:04:01.145Z,1003.94
2023-04-13T07:05:01.122Z,1003.91
2023-04-13T07:06:01.760Z,1003.93
2023-04-13T07:07:01.097Z,1003.89
2023-04-13T07:08:01.535Z,1003.86
2023-04-13T07:09:01.306Z,1003.85
2023-04-13T07:10:01.142Z,1003.86
2023-04-13T07:11:01.119Z,1003.83
2023-04-13T07:12:01.037Z,1003.86
2023-04-13T07:13:01.040Z,1003.87
2023-04-13T07:14:01.045Z,1003.86
2023-04-13T07:15:01.048Z,1003.83
2023-04-13T07:16:01.080Z,1003.83
2023-04-13T07:17:01.357Z,1003.87
2023-04-13T07:18:01.082Z,1003.93
2023-04-13T07:19:01.545Z,1003.95
2023-04-13T07:20:01.454Z,1003.96
2023-04-13T07:21:01.162Z,1003.94
2023-04-13T07:22:01.088Z,1003.92
2023-04-13T07:23:01.091Z,1003.94
2023-04-13T07:24:01.098Z,1003.95
2023-04-13T07:25:01.110Z,1003.93
2023-04-13T07:26:01.350Z,1003.95
2023-04-13T07:27:01.515Z,1003.93
2023-04-13T07:28:02.048Z,1003.92
2023-04-13T07:29:02.174Z,1003.92
2023-04-13T07:30:02.289Z,1003.95
2023-04-13T07:31:01.057Z,1003.91
2023-04-13T07:32:01.235Z,1003.9
2023-04-13T07:33:00.887Z,1003.92
2023-04-13T07:34:01.026Z,1003.88
2023-04-13T07:35:01.084Z,1003.86
2023-04-13T07:36:01.064Z,1003.87
2023-04-13T07:37:01.041Z,1003.88
2023-04-13T07:38:01.297Z,1003.89
2023-04-13T07:39:01.821Z,1003.91
2023-04-13T07:40:02.151Z,1003.9
2023-04-13T07:41:01.067Z,1003.93
2023-04-13T07:42:00.698Z,1003.95
2023-04-13T07:43:00.390Z,1004.01
2023-04-13T07:44:00.011Z,1004.01
2023-04-13T07:44:59.825Z,1004.04
2023-04-13T07:46:01.463Z,1004.04
2023-04-13T07:47:02.198Z,1003.99
2023-04-13T07:48:01.507Z,1004.07
2023-04-13T07:49:02.265Z,1004.1
2023-04-13T07:50:01.150Z,1004.07
2023-04-13T07:51:01.018Z,1004.08
2023-04-13T07:52:01.094Z,1004.1
2023-04-13T07:53:01.491Z,1004.14
2023-04-13T07:54:01.102Z,1004.08
2023-04-13T07:55:01.085Z,1004.11
2023-04-13T07:56:01.255Z,1004.11
2023-04-13T07:57:01.257Z,1004.06
2023-04-13T07:58:01.530Z,1004.06
2023-04-13T07:59:02.159Z,1004.11
2023-04-13T08:00:01.429Z,1004.17
2023-04-13T08:01:02.143Z,1004.14
2023-04-13T08:02:01.751Z,1004.17
2023-04-13T08:03:01.504Z,1004.23
2023-04-13T08:04:02.193Z,1004.19
2023-04-13T08:05:01.935Z,1004.27
2023-04-13T08:06:02.121Z,1004.23
2023-04-13T08:07:01.597Z,1004.23
2023-04-13T08:08:02.095Z,1004.29
2023-04-13T08:09:01.342Z,1004.31
2023-04-13T08:10:01.303Z,1004.32
2023-04-13T08:11:01.105Z,1004.32
2023-04-13T08:12:01.107Z,1004.4
2023-04-13T08:13:00.819Z,1004.31
2023-04-13T08:14:01.133Z,1004.37
2023-04-13T08:15:01.545Z,1004.39
2023-04-13T08:16:01.576Z,1004.38
2023-04-13T08:17:02.620Z,1004.4
2023-04-13T08:18:00.742Z,1004.42
2023-04-13T08:19:00.682Z,1004.41
2023-04-13T08:20:01.274Z,1004.41
2023-04-13T08:21:03.540Z,1004.41
2023-04-13T08:22:01.234Z,1004.47
2023-04-13T08:23:01.081Z,1004.45
2023-04-13T08:24:01.079Z,1004.44
2023-04-13T08:25:01.213Z,1004.47
2023-04-13T08:26:06.647Z,1004.48
2023-04-13T08:27:02.143Z,1004.49
2023-04-13T08:28:01.316Z,1004.46
2023-04-13T08:29:01.325Z,1004.49
2023-04-13T08:30:01.210Z,1004.53
2023-04-13T08:31:10.357Z,1004.48
2023-04-13T08:32:01.334Z,1004.51
2023-04-13T08:33:01.073Z,1004.54
2023-04-13T08:34:01.496Z,1004.54
2023-04-13T08:35:01.804Z,1004.58
2023-04-13T08:36:12.597Z,1004.63
2023-04-13T08:37:01.770Z,1004.64
2023-04-13T08:38:01.354Z,1004.6
2023-04-13T08:39:02.508Z,1004.6
2023-04-13T08:40:01.393Z,1004.56
2023-04-13T08:41:13.682Z,1004.52
2023-04-13T08:42:01.109Z,1004.52
2023-04-13T08:43:00.781Z,1004.54
2023-04-13T08:44:00.686Z,1004.58
2023-04-13T08:45:01.112Z,1004.57
2023-04-13T08:46:16.229Z,1004.57
2023-04-13T08:47:02.476Z,1004.56
2023-04-13T08:48:01.463Z,1004.6
2023-04-13T08:49:01.149Z,1004.59
2023-04-13T08:50:01.050Z,1004.62
2023-04-13T08:51:00.783Z,1004.59
2023-04-13T08:52:00.446Z,1004.61
2023-04-13T08:53:00.133Z,1004.6
2023-04-13T08:53:59.723Z,1004.63
2023-04-13T08:55:01.751Z,1004.64
2023-04-13T08:56:01.361Z,1004.63
2023-04-13T08:57:01.467Z,1004.6
2023-04-13T08:58:00.984Z,1004.64
2023-04-13T08:59:01.379Z,1004.68
2023-04-13T09:00:01.158Z,1004.71
2023-04-13T09:01:01.575Z,1004.68
2023-04-13T09:02:01.210Z,1004.81
2023-04-13T09:03:05.636Z,1004.84
2023-04-13T09:04:01.365Z,1004.9
2023-04-13T09:05:01.863Z,1004.92
2023-04-13T09:06:01.561Z,1004.89
2023-04-13T09:07:00.827Z,1004.92
2023-04-13T09:08:00.498Z,1004.89
2023-04-13T09:09:00.328Z,1004.91
2023-04-13T09:10:00.245Z,1004.9
2023-04-13T09:10:59.929Z,1004.87
2023-04-13T09:11:59.517Z,1004.92
2023-04-13T09:13:01.196Z,1004.88
2023-04-13T09:14:01.813Z,1004.91
2023-04-13T09:15:01.100Z,1004.93
2023-04-13T09:16:01.095Z,1004.88
2023-04-13T09:17:01.139Z,1004.89
2023-04-13T09:18:00.886Z,1004.88
2023-04-13T09:19:01.361Z,1004.9
2023-04-13T09:20:00.473Z,1004.94
2023-04-13T09:21:00.228Z,1004.92
2023-04-13T09:21:59.887Z,1004.99
2023-04-13T09:22:59.488Z,1005
2023-04-13T09:24:01.059Z,1004.96
2023-04-13T09:25:01.057Z,1004.96
2023-04-13T09:26:01.084Z,1004.96
2023-04-13T09:27:01.140Z,1004.97
2023-04-13T09:28:01.500Z,1004.97
2023-04-13T09:29:01.381Z,1004.95
2023-04-13T09:30:01.132Z,1004.98
2023-04-13T09:31:01.126Z,1004.93
2023-04-13T09:32:01.019Z,1004.88
2023-04-13T09:33:00.700Z,1004.9
2023-04-13T09:34:00.507Z,1004.93
2023-04-13T09:35:00.232Z,1004.96
2023-04-13T09:35:59.859Z,1004.97
2023-04-13T09:37:01.675Z,1004.96
2023-04-13T09:38:01.363Z,1004.95
2023-04-13T09:39:01.411Z,1004.97
2023-04-13T09:40:01.053Z,1004.94
2023-04-13T09:41:01.053Z,1004.94
2023-04-13T09:42:01.061Z,1004.99
2023-04-13T09:43:01.103Z,1005
2023-04-13T09:44:01.079Z,1005.04
2023-04-13T09:45:01.091Z,1004.97
2023-04-13T09:46:01.204Z,1005.01
2023-04-13T09:47:01.556Z,1004.98
2023-04-13T09:48:01.618Z,1005.01
2023-04-13T09:49:01.577Z,1005.03
2023-04-13T09:50:01.116Z,1005.01
2023-04-13T09:51:01.347Z,1005.1
2023-04-13T09:52:02.044Z,1005.11
2023-04-13T09:53:01.056Z,1005.13
2023-04-13T09:54:01.081Z,1005.14
2023-04-13T09:55:01.149Z,1005.14
2023-04-13T09:56:01.735Z,1005.15
2023-04-13T09:57:01.182Z,1005.16
2023-04-13T09:58:00.870Z,1005.14
2023-04-13T09:59:01.217Z,1005.16
2023-04-13T10:00:01.929Z,1005.14
2023-04-13T10:01:01.129Z,1005.11
2023-04-13T10:02:01.148Z,1005.13
2023-04-13T10:03:01.155Z,1005.15
2023-04-13T10:04:01.671Z,1005.12
2023-04-13T10:05:01.549Z,1005.13
2023-04-13T10:06:01.234Z,1005.2
2023-04-13T10:07:01.120Z,1005.21
2023-04-13T10:08:01.060Z,1005.22
2023-04-13T10:09:01.072Z,1005.19
2023-04-13T10:10:01.062Z,1005.21
2023-04-13T10:11:01.383Z,1005.25
2023-04-13T10:12:01.181Z,1005.26
2023-04-13T10:13:01.372Z,1005.29
2023-04-13T10:14:02.252Z,1005.24
2023-04-13T10:15:02.149Z,1005.22
2023-04-13T10:16:03.534Z,1005.24
2023-04-13T10:17:05.530Z,1005.17
2023-04-13T10:18:01.291Z,1005.25
2023-04-13T10:19:01.704Z,1005.23
2023-04-13T10:20:01.145Z,1005.29
2023-04-13T10:21:01.130Z,1005.29
2023-04-13T10:22:09.358Z,1005.31
2023-04-13T10:23:01.133Z,1005.32
2023-04-13T10:24:01.330Z,1005.33
2023-04-13T10:25:01.127Z,1005.33
2023-04-13T10:26:01.041Z,1005.32
2023-04-13T10:27:11.315Z,1005.34
2023-04-13T10:28:01.427Z,1005.34
2023-04-13T10:29:01.244Z,1005.33
2023-04-13T10:30:01.993Z,1005.33
2023-04-13T10:31:01.115Z,1005.34
2023-04-13T10:32:14.371Z,1005.39
2023-04-13T10:33:01.125Z,1005.36
2023-04-13T10:34:01.980Z,1005.36
2023-04-13T10:35:01.265Z,1005.36
2023-04-13T10:36:01.171Z,1005.39
2023-04-13T10:37:16.811Z,1005.34
2023-04-13T10:38:01.403Z,1005.3
2023-04-13T10:39:02.391Z,1005.28
2023-04-13T10:40:01.134Z,1005.2
2023-04-13T10:41:01.194Z,1005.22
2023-04-13T10:42:01.140Z,1005.25
2023-04-13T10:43:01.130Z,1005.23
2023-04-13T10:44:01.279Z,1005.27
2023-04-13T10:45:01.440Z,1005.27
2023-04-13T10:46:01.443Z,1005.31
2023-04-13T10:47:01.248Z,1005.27
2023-04-13T10:48:01.021Z,1005.27
2023-04-13T10:49:01.304Z,1005.32
2023-04-13T10:50:01.161Z,1005.27
2023-04-13T10:51:01.281Z,1005.33
2023-04-13T10:52:01.816Z,1005.33
2023-04-13T10:53:01.124Z,1005.32
2023-04-13T10:54:01.107Z,1005.35
2023-04-13T10:55:01.194Z,1005.32
2023-04-13T10:56:01.185Z,1005.27
2023-04-13T10:57:01.043Z,1005.33
2023-04-13T10:58:01.572Z,1005.28
2023-04-13T10:59:01.380Z,1005.33
2023-04-13T11:00:01.715Z,1005.32
2023-04-13T11:01:01.461Z,1005.34
2023-04-13T11:02:01.192Z,1005.36
2023-04-13T11:03:01.182Z,1005.34
2023-04-13T11:04:05.647Z,1005.35
2023-04-13T11:05:02.043Z,1005.38
2023-04-13T11:06:08.656Z,1005.4
2023-04-13T11:07:01.152Z,1005.41
2023-04-13T11:08:01.784Z,1005.42
2023-04-13T11:09:01.105Z,1005.37
2023-04-13T11:10:03.811Z,1005.42
2023-04-13T11:11:01.880Z,1005.42
2023-04-13T11:12:01.553Z,1005.43
2023-04-13T11:13:01.153Z,1005.47
2023-04-13T11:14:01.416Z,1005.41
2023-04-13T11:15:01.225Z,1005.43
2023-04-13T11:16:02.420Z,1005.42
2023-04-13T11:17:01.448Z,1005.4
2023-04-13T11:18:02.282Z,1005.44
2023-04-13T11:19:01.442Z,1005.46
2023-04-13T11:20:01.074Z,1005.39
2023-04-13T11:21:01.103Z,1005.4
2023-04-13T11:22:01.031Z,1005.48
2023-04-13T11:23:00.707Z,1005.46
2023-04-13T11:24:00.397Z,1005.46
2023-04-13T11:25:00.058Z,1005.42
2023-04-13T11:25:59.593Z,1005.42
2023-04-13T11:27:01.141Z,1005.38
2023-04-13T11:28:01.139Z,1005.38
2023-04-13T11:29:01.202Z,1005.38
2023-04-13T11:30:01.132Z,1005.41
2023-04-13T11:31:01.174Z,1005.41
2023-04-13T11:32:01.328Z,1005.42
2023-04-13T11:33:01.160Z,1005.37
2023-04-13T11:34:03.865Z,1005.41
2023-04-13T11:35:01.066Z,1005.38
2023-04-13T11:36:01.064Z,1005.35
2023-04-13T11:37:01.080Z,1005.45
2023-04-13T11:38:01.070Z,1005.5
2023-04-13T11:39:01.271Z,1005.49
2023-04-13T11:40:00.928Z,1005.44
2023-04-13T11:41:12.450Z,1005.48
2023-04-13T11:42:01.038Z,1005.48
2023-04-13T11:43:01.207Z,1005.52
2023-04-13T11:44:01.665Z,1005.56
2023-04-13T11:45:01.197Z,1005.57
2023-04-13T11:46:01.653Z,1005.58
2023-04-13T11:47:01.190Z,1005.52
2023-04-13T11:48:00.857Z,1005.57
2023-04-13T11:49:01.640Z,1005.61
2023-04-13T11:50:01.097Z,1005.62
2023-04-13T11:51:01.101Z,1005.63
2023-04-13T11:52:01.040Z,1005.62
2023-04-13T11:53:04.104Z,1005.65
2023-04-13T11:54:01.109Z,1005.66
2023-04-13T11:55:11.198Z,1005.64
2023-04-13T11:56:01.135Z,1005.62
2023-04-13T11:57:01.147Z,1005.65
2023-04-13T11:58:06.281Z,1005.59
2023-04-13T11:59:01.754Z,1005.59
2023-04-13T12:00:01.258Z,1005.61
2023-04-13T12:01:03.468Z,1005.58
2023-04-13T12:02:03.177Z,1005.62
2023-04-13T12:03:24.492Z,1005.61
2023-04-13T12:04:08.328Z,1005.61
2023-04-13T12:05:01.313Z,1005.61
2023-04-13T12:06:01.488Z,1005.57
2023-04-13T12:07:01.576Z,1005.55
2023-04-13T12:08:12.061Z,1005.57
2023-04-13T12:09:09.314Z,1005.54
2023-04-13T12:10:06.029Z,1005.53